createdAt,value
2018-03-25T00:01:31.687Z,52.47
2018-03-25T00:04:00.537Z,53.15
2018-03-25T00:06:28.914Z,52.75
2018-03-25T00:08:57.309Z,52.69
2018-03-25T00:11:25.693Z,52.59
2018-03-25T00:13:54.199Z,52.42
2018-03-25T00:16:22.594Z,52.61
2018-03-25T00:18:50.984Z,52.69
2018-03-25T00:21:19.572Z,52.99
2018-03-25T00:23:47.942Z,53.08
2018-03-25T00:26:16.314Z,53.83
2018-03-25T00:28:44.732Z,53.71
2018-03-25T00:31:13.144Z,52.92
2018-03-25T00:33:41.661Z,53.14
2018-03-25T00:36:10.026Z,53.15
2018-03-25T00:38:38.385Z,53.21
2018-03-25T00:41:06.766Z,53.24
2018-03-25T00:43:35.146Z,53.00
2018-03-25T00:46:03.694Z,53.28
2018-03-25T00:48:32.062Z,53.20
2018-03-25T00:51:00.743Z,53.05
2018-03-25T00:53:29.162Z,53.17
2018-03-25T00:55:57.549Z,53.73
2018-03-25T00:58:26.295Z,53.49
2018-03-25T01:00:54.695Z,54.62
2018-03-25T01:03:23.073Z,55.14
2018-03-25T01:05:51.549Z,54.82
2018-03-25T01:08:19.924Z,56.08
2018-03-25T01:10:48.306Z,55.44
2018-03-25T01:13:16.817Z,56.35
2018-03-25T01:16:02.688Z,56.72
2018-03-25T01:18:31.126Z,56.24
2018-03-25T01:20:59.646Z,56.92
2018-03-25T01:23:28.023Z,57.24
2018-03-25T01:25:56.611Z,57.09
2018-03-25T01:28:25.475Z,55.86
2018-03-25T01:30:53.958Z,56.37
2018-03-25T01:33:22.357Z,56.66
2018-03-25T01:35:50.740Z,56.51
2018-03-25T01:38:19.230Z,56.51
2018-03-25T01:40:47.631Z,56.25
2018-03-25T01:43:16.129Z,56.46
2018-03-25T01:45:44.600Z,56.68
2018-03-25T01:48:13.044Z,56.61
2018-03-25T01:50:41.417Z,56.48
2018-03-25T01:53:09.941Z,56.20
2018-03-25T01:55:38.669Z,56.52
2018-03-25T01:58:07.268Z,57.05
2018-03-25T02:00:36.169Z,57.45
2018-03-25T02:03:04.558Z,57.34
2018-03-25T02:05:33.186Z,56.77
2018-03-25T02:08:01.592Z,56.60
2018-03-25T02:10:30.048Z,56.66
2018-03-25T02:12:58.413Z,56.96
2018-03-25T02:15:26.872Z,57.75
2018-03-25T02:17:55.241Z,57.07
2018-03-25T02:20:23.626Z,56.51
2018-03-25T02:22:52.021Z,56.42
2018-03-25T02:25:20.562Z,56.21
2018-03-25T02:27:48.943Z,56.04
2018-03-25T02:30:17.621Z,55.89
2018-03-25T02:32:46.115Z,56.28
2018-03-25T02:35:14.504Z,56.65
2018-03-25T02:37:43.081Z,56.53
2018-03-25T02:40:11.731Z,56.45
2018-03-25T02:42:40.267Z,57.02
2018-03-25T02:45:08.797Z,56.65
2018-03-25T02:47:37.179Z,56.43
2018-03-25T02:50:05.563Z,56.17
2018-03-25T02:52:33.962Z,55.97
2018-03-25T02:55:02.594Z,55.73
2018-03-25T02:57:30.958Z,55.40
2018-03-25T02:59:59.356Z,55.77
2018-03-25T03:02:27.766Z,55.20
2018-03-25T03:04:56.143Z,55.29
2018-03-25T03:07:24.541Z,55.61
2018-03-25T03:09:52.913Z,55.92
2018-03-25T03:12:21.844Z,55.80
2018-03-25T03:14:50.363Z,55.80
2018-03-25T03:17:18.824Z,56.04
2018-03-25T03:19:47.308Z,55.67
2018-03-25T03:22:16.061Z,56.03
2018-03-25T03:24:44.624Z,55.71
2018-03-25T03:27:13.208Z,54.90
2018-03-25T03:29:41.801Z,55.51
2018-03-25T03:32:10.352Z,55.29
2018-03-25T03:34:39.024Z,55.59
2018-03-25T03:37:07.389Z,55.25
2018-03-25T03:39:35.765Z,55.52
2018-03-25T03:42:04.177Z,56.09
2018-03-25T03:44:32.757Z,55.89
2018-03-25T03:47:01.128Z,55.95
2018-03-25T03:49:29.797Z,55.53
2018-03-25T03:51:58.189Z,55.59
2018-03-25T03:54:26.572Z,55.51
2018-03-25T03:56:55.234Z,55.95
2018-03-25T03:59:23.739Z,56.01
2018-03-25T04:01:52.228Z,56.30
2018-03-25T04:04:20.602Z,56.53
2018-03-25T04:06:48.970Z,56.88
2018-03-25T04:09:17.450Z,57.20
2018-03-25T04:11:45.828Z,56.50
2018-03-25T04:14:14.506Z,56.24
2018-03-25T04:16:42.882Z,55.78
2018-03-25T04:19:11.284Z,55.82
2018-03-25T04:21:39.813Z,56.22
2018-03-25T04:24:08.593Z,56.98
2018-03-25T04:26:36.962Z,56.40
2018-03-25T04:29:05.475Z,56.08
2018-03-25T04:31:33.849Z,56.32
2018-03-25T04:34:02.240Z,56.61
2018-03-25T04:36:30.606Z,56.80
2018-03-25T04:38:58.990Z,56.88
2018-03-25T04:41:27.492Z,57.30
2018-03-25T04:43:56.128Z,58.06
2018-03-25T04:46:24.497Z,57.50
2018-03-25T04:48:53.457Z,57.20
2018-03-25T04:51:22.122Z,56.75
2018-03-25T04:53:50.777Z,57.07
2018-03-25T04:56:19.201Z,56.33
2018-03-25T04:58:47.697Z,56.03
2018-03-25T05:01:16.266Z,56.48
2018-03-25T05:03:44.850Z,56.53
2018-03-25T05:06:13.982Z,56.08
2018-03-25T05:08:42.361Z,56.08
2018-03-25T05:11:10.737Z,56.86
2018-03-25T05:13:39.205Z,56.27
2018-03-25T05:16:07.590Z,55.87
2018-03-25T05:18:36.394Z,55.12
2018-03-25T05:21:04.814Z,54.98
2018-03-25T05:23:33.194Z,54.26
2018-03-25T05:26:01.722Z,54.39
2018-03-25T05:28:30.101Z,53.11
2018-03-25T05:30:58.709Z,53.32
2018-03-25T05:33:27.217Z,52.59
2018-03-25T05:35:55.595Z,51.40
2018-03-25T05:38:23.993Z,50.22
2018-03-25T05:40:52.404Z,49.98
2018-03-25T05:43:20.982Z,48.80
2018-03-25T05:45:49.353Z,47.59
2018-03-25T05:48:17.733Z,46.63
2018-03-25T05:50:47.206Z,45.86
2018-03-25T05:53:15.663Z,45.17
2018-03-25T05:55:44.155Z,44.30
2018-03-25T05:58:12.545Z,43.14
2018-03-25T06:00:40.961Z,41.84
2018-03-25T06:03:09.455Z,41.36
2018-03-25T06:05:37.833Z,40.11
2018-03-25T06:08:06.214Z,38.91
2018-03-25T06:10:34.590Z,37.38
2018-03-25T06:13:03.110Z,36.82
2018-03-25T06:15:31.698Z,36.03
2018-03-25T06:18:00.085Z,35.41
2018-03-25T06:20:28.470Z,34.08
2018-03-25T06:22:57.081Z,33.63
2018-03-25T06:25:25.508Z,32.82
2018-03-25T06:27:54.266Z,31.95
2018-03-25T06:30:22.647Z,30.89
2018-03-25T06:32:51.429Z,29.71
2018-03-25T06:35:20.015Z,29.24
2018-03-25T06:37:48.498Z,28.80
2018-03-25T06:40:16.898Z,27.42
2018-03-25T06:42:45.852Z,26.83
2018-03-25T06:45:14.254Z,25.94
2018-03-25T06:47:42.645Z,25.64
2018-03-25T06:50:11.082Z,25.51
2018-03-25T06:52:39.685Z,24.50
2018-03-25T06:55:08.071Z,23.57
2018-03-25T06:57:36.499Z,23.85
2018-03-25T07:00:05.080Z,24.62
2018-03-25T07:02:33.465Z,24.47
2018-03-25T07:05:02.554Z,24.50
2018-03-25T07:07:30.947Z,23.82
2018-03-25T07:09:59.324Z,24.28
2018-03-25T07:12:27.698Z,23.52
2018-03-25T07:14:56.177Z,24.19
2018-03-25T07:17:24.589Z,22.91
2018-03-25T07:19:53.048Z,22.63
2018-03-25T07:22:21.617Z,22.90
2018-03-25T07:24:49.988Z,22.33
2018-03-25T07:27:18.368Z,22.01
2018-03-25T07:29:46.747Z,22.01
2018-03-25T07:32:15.121Z,21.97
2018-03-25T07:34:43.515Z,22.66
2018-03-25T07:37:11.895Z,22.42
2018-03-25T07:39:40.268Z,21.91
2018-03-25T07:42:08.730Z,21.55
2018-03-25T07:44:37.125Z,21.25
2018-03-25T07:47:05.619Z,20.36
2018-03-25T07:49:34.029Z,20.07
2018-03-25T07:52:02.410Z,20.02
2018-03-25T07:54:31.011Z,19.26
2018-03-25T07:56:59.654Z,19.29
2018-03-25T07:59:28.057Z,19.53
2018-03-25T08:01:56.442Z,19.25
2018-03-25T08:04:24.835Z,18.86
2018-03-25T08:06:53.213Z,19.32
2018-03-25T08:09:21.589Z,18.68
2018-03-25T08:11:50.027Z,17.89
2018-03-25T08:14:18.494Z,18.09
2018-03-25T08:16:46.883Z,17.00
2018-03-25T08:19:15.267Z,17.69
2018-03-25T08:21:43.756Z,17.23
2018-03-25T08:24:12.203Z,16.92
2018-03-25T08:26:40.584Z,16.93
2018-03-25T08:29:09.476Z,16.96
2018-03-25T08:31:38.106Z,16.40
2018-03-25T08:34:06.561Z,17.10
2018-03-25T08:36:34.958Z,16.01
2018-03-25T08:39:03.344Z,16.13
2018-03-25T08:41:31.737Z,16.11
2018-03-25T08:44:00.339Z,16.62
2018-03-25T08:46:28.939Z,16.16
2018-03-25T08:48:57.420Z,15.86
2018-03-25T08:51:25.822Z,15.35
2018-03-25T08:53:54.202Z,15.61
2018-03-25T08:56:22.839Z,14.88
2018-03-25T08:58:51.231Z,14.61
2018-03-25T09:01:19.752Z,14.98
2018-03-25T09:03:48.205Z,15.05
2018-03-25T09:06:16.644Z,15.02
2018-03-25T09:08:45.369Z,14.80
2018-03-25T09:11:13.796Z,14.68
2018-03-25T09:13:42.258Z,14.23
2018-03-25T09:16:10.672Z,14.00
2018-03-25T09:18:39.221Z,14.08
2018-03-25T09:21:07.597Z,15.17
2018-03-25T09:23:36.166Z,15.41
2018-03-25T09:26:04.654Z,15.69
2018-03-25T09:28:33.041Z,15.56
2018-03-25T09:31:01.572Z,14.03
2018-03-25T09:33:30.113Z,14.54
2018-03-25T09:35:58.498Z,14.85
2018-03-25T09:38:27.019Z,15.03
2018-03-25T09:40:55.395Z,14.22
2018-03-25T09:43:24.592Z,14.24
2018-03-25T09:45:53.157Z,13.92
2018-03-25T09:48:21.534Z,13.68
2018-03-25T09:50:49.922Z,13.15
2018-03-25T09:53:18.305Z,13.41
2018-03-25T09:55:46.811Z,14.21
2018-03-25T09:58:15.440Z,13.96
2018-03-25T10:00:44.509Z,13.44
2018-03-25T10:06:16.889Z,13.40
2018-03-25T10:08:45.350Z,13.18
2018-03-25T10:11:15.172Z,13.57
2018-03-25T10:13:43.617Z,13.12
2018-03-25T10:16:11.989Z,13.45
2018-03-25T10:18:40.513Z,14.01
2018-03-25T10:21:08.907Z,14.43
2018-03-25T10:23:37.412Z,14.52
2018-03-25T10:26:05.815Z,14.49
2018-03-25T10:28:34.235Z,15.03
2018-03-25T10:31:02.806Z,14.91
2018-03-25T10:33:31.293Z,15.47
2018-03-25T10:35:59.668Z,16.20
2018-03-25T10:38:28.049Z,16.29
2018-03-25T10:40:56.426Z,16.19
2018-03-25T10:43:25.112Z,16.34
2018-03-25T10:45:53.694Z,16.73
2018-03-25T10:48:22.248Z,16.14
2018-03-25T10:50:50.778Z,16.22
2018-03-25T10:53:19.166Z,16.46
2018-03-25T10:55:47.557Z,16.19
2018-03-25T10:58:16.102Z,16.27
2018-03-25T11:00:44.656Z,16.46
2018-03-25T11:03:13.057Z,16.58
2018-03-25T11:05:41.446Z,16.32
2018-03-25T11:08:10.613Z,16.67
2018-03-25T11:10:39.040Z,16.77
2018-03-25T11:13:07.430Z,17.13
2018-03-25T11:15:35.854Z,17.36
2018-03-25T11:18:04.254Z,17.79
2018-03-25T11:20:32.844Z,18.69
2018-03-25T11:23:01.320Z,20.84
2018-03-25T11:25:29.846Z,21.31
2018-03-25T11:27:58.230Z,22.98
2018-03-25T11:30:26.713Z,23.89
2018-03-25T11:32:55.190Z,24.51
2018-03-25T11:35:23.710Z,25.88
2018-03-25T11:37:52.100Z,26.39
2018-03-25T11:40:20.500Z,27.39
2018-03-25T11:42:48.878Z,27.49
2018-03-25T11:45:17.257Z,27.98
2018-03-25T11:47:45.762Z,27.55
2018-03-25T11:50:14.225Z,28.23
2018-03-25T11:52:42.810Z,29.39
2018-03-25T11:55:11.212Z,29.10
2018-03-25T11:57:39.610Z,29.54
2018-03-25T12:00:08.093Z,30.16
2018-03-25T12:02:36.546Z,29.50
2018-03-25T12:05:05.067Z,29.52
2018-03-25T12:07:33.580Z,30.41
2018-03-25T12:10:01.982Z,29.99
2018-03-25T12:15:05.063Z,28.50
2018-03-25T12:17:33.578Z,28.12
2018-03-25T12:20:02.612Z,28.25
2018-03-25T12:22:31.064Z,28.12
2018-03-25T12:24:59.451Z,27.90
2018-03-25T12:27:27.830Z,27.44
2018-03-25T12:29:56.364Z,27.87
2018-03-25T12:32:24.750Z,28.32
2018-03-25T12:34:53.372Z,28.07
2018-03-25T12:37:22.085Z,28.28
2018-03-25T12:39:50.456Z,28.17
2018-03-25T12:42:19.009Z,28.22
2018-03-25T12:44:47.426Z,27.94
2018-03-25T12:47:16.428Z,28.15
2018-03-25T12:49:44.869Z,28.00
2018-03-25T12:52:13.425Z,28.47
2018-03-25T12:54:41.948Z,28.41
2018-03-25T12:57:10.337Z,28.17
2018-03-25T12:59:38.781Z,28.13
2018-03-25T13:02:07.190Z,27.86
2018-03-25T13:04:35.574Z,28.14
2018-03-25T13:07:03.954Z,28.29
2018-03-25T13:09:32.356Z,27.86
2018-03-25T13:12:00.886Z,27.72
2018-03-25T13:14:29.440Z,27.48
2018-03-25T13:16:57.873Z,28.30
2018-03-25T13:19:26.248Z,28.47
2018-03-25T13:21:54.628Z,28.04
2018-03-25T13:24:23.013Z,27.18
2018-03-25T13:26:51.437Z,27.36
2018-03-25T13:29:20.076Z,26.15
2018-03-25T13:31:48.491Z,26.28
2018-03-25T13:34:17.046Z,26.69
2018-03-25T13:36:45.510Z,26.25
2018-03-25T13:39:13.894Z,26.32
2018-03-25T13:41:42.408Z,26.24
2018-03-25T13:44:11.154Z,26.46
2018-03-25T13:46:39.630Z,26.73
2018-03-25T13:49:08.182Z,26.85
2018-03-25T13:51:36.623Z,26.85
2018-03-25T13:54:05.119Z,27.06
2018-03-25T13:56:33.641Z,28.01
2018-03-25T13:59:02.026Z,27.73
2018-03-25T14:01:30.411Z,27.33
2018-03-25T14:03:58.783Z,26.69
2018-03-25T14:06:27.167Z,27.00
2018-03-25T14:08:55.549Z,26.57
2018-03-25T14:11:23.953Z,26.45
2018-03-25T14:13:52.341Z,26.76
2018-03-25T14:16:20.806Z,27.15
2018-03-25T14:18:49.234Z,26.69
2018-03-25T14:21:17.825Z,27.00
2018-03-25T14:23:46.230Z,26.49
2018-03-25T14:26:14.737Z,26.98
2018-03-25T14:28:43.273Z,28.17
2018-03-25T14:31:11.684Z,27.79
2018-03-25T14:33:40.227Z,28.04
2018-03-25T14:36:08.661Z,27.90
2018-03-25T14:38:37.039Z,27.65
2018-03-25T14:41:05.617Z,26.92
2018-03-25T14:43:34.244Z,27.02
2018-03-25T14:46:02.651Z,26.92
2018-03-25T14:48:31.058Z,26.64
2018-03-25T14:50:59.514Z,26.69
2018-03-25T14:53:28.134Z,26.86
2018-03-25T14:55:56.563Z,27.55
2018-03-25T14:58:24.981Z,27.45
2018-03-25T15:00:53.369Z,27.38
2018-03-25T15:03:21.790Z,27.49
2018-03-25T15:05:51.341Z,27.39
2018-03-25T15:08:19.961Z,27.66
2018-03-25T15:10:48.362Z,28.09
2018-03-25T15:13:16.913Z,28.02
2018-03-25T15:15:45.305Z,28.49
2018-03-25T15:18:14.122Z,28.52
2018-03-25T15:20:42.922Z,28.13
2018-03-25T15:23:11.434Z,28.25
2018-03-25T15:25:39.822Z,27.83
2018-03-25T15:28:08.294Z,27.93
2018-03-25T15:30:36.845Z,27.74
2018-03-25T15:33:05.218Z,27.65
2018-03-25T15:35:33.648Z,28.09
2018-03-25T15:38:02.066Z,28.02
2018-03-25T15:40:30.440Z,28.46
2018-03-25T15:42:58.842Z,28.29
2018-03-25T15:45:27.224Z,28.48
2018-03-25T15:47:55.597Z,28.29
2018-03-25T15:50:24.058Z,28.41
2018-03-25T15:52:52.434Z,28.60
2018-03-25T15:55:20.823Z,28.81
2018-03-25T15:57:49.301Z,28.70
2018-03-25T16:00:18.019Z,28.76
2018-03-25T16:02:46.404Z,28.96
2018-03-25T16:05:14.890Z,28.88
2018-03-25T16:07:43.302Z,29.38
2018-03-25T16:10:11.690Z,29.69
2018-03-25T16:12:40.078Z,29.60
2018-03-25T16:15:08.457Z,29.30
2018-03-25T16:17:36.865Z,29.66
2018-03-25T16:20:05.245Z,29.78
2018-03-25T16:22:33.637Z,29.90
2018-03-25T16:25:02.144Z,29.77
2018-03-25T16:27:30.694Z,29.87
2018-03-25T16:29:59.252Z,29.95
2018-03-25T16:32:27.638Z,29.85
2018-03-25T16:34:56.022Z,29.97
2018-03-25T16:37:24.401Z,30.06
2018-03-25T16:39:52.853Z,30.10
2018-03-25T16:42:21.377Z,30.19
2018-03-25T16:44:50.492Z,30.44
2018-03-25T16:47:18.866Z,30.41
2018-03-25T16:49:47.242Z,30.56
2018-03-25T16:52:15.634Z,30.62
2018-03-25T16:54:44.203Z,30.74
2018-03-25T16:57:12.544Z,30.79
2018-03-25T16:59:41.038Z,30.65
2018-03-25T17:02:09.553Z,30.67
2018-03-25T17:04:37.962Z,30.69
2018-03-25T17:07:06.355Z,30.71
2018-03-25T17:09:34.740Z,30.74
2018-03-25T17:12:03.270Z,30.77
2018-03-25T17:14:31.657Z,30.65
2018-03-25T17:17:00.040Z,30.84
2018-03-25T17:19:28.439Z,31.09
2018-03-25T17:21:56.920Z,31.20
2018-03-25T17:24:25.289Z,31.24
2018-03-25T17:26:53.754Z,31.44
2018-03-25T17:29:22.429Z,31.44
2018-03-25T17:31:51.174Z,31.34
2018-03-25T17:34:19.660Z,31.31
2018-03-25T17:36:49.081Z,31.34
2018-03-25T17:39:17.462Z,31.19
2018-03-25T17:41:45.912Z,31.15
2018-03-25T17:44:14.346Z,31.01
2018-03-25T17:46:42.730Z,30.87
2018-03-25T17:49:11.105Z,30.97
2018-03-25T17:51:39.497Z,30.87
2018-03-25T17:54:07.879Z,31.02
2018-03-25T17:56:36.278Z,31.07
2018-03-25T17:59:04.702Z,31.05
2018-03-25T18:01:33.111Z,31.12
2018-03-25T18:04:01.494Z,31.34
2018-03-25T18:06:29.993Z,31.40
2018-03-25T18:08:58.521Z,31.51
2018-03-25T18:11:27.011Z,31.44
2018-03-25T18:13:55.411Z,31.59
2018-03-25T18:16:23.863Z,31.20
2018-03-25T18:18:52.492Z,32.16
2018-03-25T18:21:20.875Z,32.05
2018-03-25T18:23:49.513Z,32.44
2018-03-25T18:26:17.958Z,32.90
2018-03-25T18:28:46.631Z,32.84
2018-03-25T18:31:15.170Z,32.97
2018-03-25T18:33:43.595Z,32.60
2018-03-25T18:36:12.117Z,32.66
2018-03-25T18:38:41.520Z,33.57
2018-03-25T18:41:09.898Z,33.45
2018-03-25T18:43:38.279Z,33.17
2018-03-25T18:46:06.654Z,33.54
2018-03-25T18:48:35.062Z,33.31
2018-03-25T18:51:03.515Z,34.03
2018-03-25T18:53:31.904Z,33.52
2018-03-25T18:56:00.294Z,33.18
2018-03-25T18:58:28.677Z,32.94
2018-03-25T19:00:57.135Z,33.16
2018-03-25T19:03:25.511Z,33.63
2018-03-25T19:05:53.888Z,33.02
2018-03-25T19:08:22.278Z,33.03
2018-03-25T19:10:50.841Z,33.03
2018-03-25T19:13:19.233Z,32.95
2018-03-25T19:15:47.610Z,32.96
2018-03-25T19:18:16.046Z,33.01
2018-03-25T19:20:44.475Z,33.06
2018-03-25T19:23:12.879Z,32.94
2018-03-25T19:25:41.244Z,33.41
2018-03-25T19:28:10.089Z,33.31
2018-03-25T19:30:38.557Z,33.15
2018-03-25T19:33:07.005Z,33.10
2018-03-25T19:35:35.446Z,33.35
2018-03-25T19:38:03.861Z,33.18
2018-03-25T19:40:32.321Z,33.11
2018-03-25T19:43:00.905Z,33.22
2018-03-25T19:45:29.295Z,33.20
2018-03-25T19:47:57.678Z,33.18
2018-03-25T19:50:26.066Z,33.43
2018-03-25T19:52:54.461Z,33.14
2018-03-25T19:55:22.930Z,33.02
2018-03-25T19:57:51.302Z,32.96
2018-03-25T20:00:19.766Z,32.97
2018-03-25T20:02:48.162Z,33.08
2018-03-25T20:05:16.554Z,33.17
2018-03-25T20:07:45.034Z,33.07
2018-03-25T20:10:13.430Z,33.90
2018-03-25T20:12:42.092Z,33.74
2018-03-25T20:15:10.475Z,34.16
2018-03-25T20:17:38.857Z,34.22
2018-03-25T20:20:07.467Z,34.19
2018-03-25T20:22:36.758Z,35.05
2018-03-25T20:25:05.175Z,35.60
2018-03-25T20:27:33.567Z,35.74
2018-03-25T20:30:02.007Z,35.22
2018-03-25T20:32:30.420Z,35.70
2018-03-25T20:34:58.798Z,35.95
2018-03-25T20:37:27.181Z,35.04
2018-03-25T20:39:55.579Z,35.69
2018-03-25T20:42:23.972Z,35.98
2018-03-25T20:44:52.623Z,37.07
2018-03-25T20:47:21.003Z,36.43
2018-03-25T20:49:49.382Z,35.70
2018-03-25T20:52:18.236Z,35.36
2018-03-25T20:54:46.644Z,34.99
2018-03-25T20:57:15.216Z,35.09
2018-03-25T20:59:43.721Z,35.53
2018-03-25T21:02:12.117Z,35.07
2018-03-25T21:04:40.558Z,35.87
2018-03-25T21:07:08.993Z,35.75
2018-03-25T21:09:37.482Z,36.21
2018-03-25T21:12:05.872Z,35.66
2018-03-25T21:14:34.378Z,34.94
2018-03-25T21:17:02.898Z,34.76
2018-03-25T21:19:31.388Z,34.86
2018-03-25T21:21:59.821Z,34.34
2018-03-25T21:24:28.241Z,34.58
2018-03-25T21:26:56.764Z,34.98
2018-03-25T21:29:25.169Z,35.41
2018-03-25T21:31:53.858Z,37.24
2018-03-25T21:34:22.274Z,37.14
2018-03-25T21:36:50.667Z,37.13
2018-03-25T21:39:19.066Z,36.82
2018-03-25T21:41:47.855Z,36.57
2018-03-25T21:44:16.599Z,36.61
2018-03-25T21:46:45.211Z,36.29
2018-03-25T21:49:13.639Z,35.72
2018-03-25T21:51:42.078Z,35.49
2018-03-25T21:54:10.498Z,35.54
2018-03-25T21:56:39.078Z,35.53
2018-03-25T21:59:07.578Z,35.51
2018-03-25T22:01:35.968Z,35.79
2018-03-25T22:04:04.567Z,35.59
2018-03-25T22:06:33.723Z,35.52
2018-03-25T22:09:02.449Z,36.08
2018-03-25T22:11:30.884Z,36.29
2018-03-25T22:13:59.710Z,36.20
2018-03-25T22:16:28.209Z,36.38
2018-03-25T22:19:00.314Z,36.22
2018-03-25T22:21:29.045Z,35.95
2018-03-25T22:23:57.815Z,35.89
2018-03-25T22:26:26.692Z,36.03
2018-03-25T22:28:55.300Z,36.29
2018-03-25T22:31:24.717Z,36.22
2018-03-25T22:33:53.542Z,36.45
2018-03-25T22:36:22.478Z,36.79
2018-03-25T22:38:51.581Z,36.52
2018-03-25T22:41:19.979Z,36.43
2018-03-25T22:43:48.514Z,36.23
2018-03-25T22:46:18.036Z,36.34
2018-03-25T22:48:46.732Z,36.19
2018-03-25T22:51:15.133Z,36.32
2018-03-25T22:53:44.265Z,37.34
2018-03-25T22:56:12.740Z,37.14
2018-03-25T22:58:41.272Z,36.85
2018-03-25T23:01:10.273Z,36.69
2018-03-25T23:03:38.988Z,36.96
2018-03-25T23:06:07.984Z,36.77
2018-03-25T23:08:37.605Z,36.80
2018-03-25T23:11:07.053Z,36.87
2018-03-25T23:13:36.992Z,37.19
2018-03-25T23:16:05.671Z,36.94
2018-03-25T23:18:34.759Z,37.19
2018-03-25T23:21:03.881Z,36.82
2018-03-25T23:23:32.949Z,36.89
2018-03-25T23:26:02.782Z,36.89
2018-03-25T23:28:31.918Z,36.93
2018-03-25T23:31:00.959Z,36.70
2018-03-25T23:33:29.870Z,36.87
2018-03-25T23:35:58.586Z,36.94
2018-03-25T23:38:27.170Z,37.23
2018-03-25T23:40:55.674Z,37.48
2018-03-25T23:43:24.272Z,37.55
2018-03-25T23:45:53.100Z,37.56
2018-03-25T23:48:21.639Z,37.55
2018-03-25T23:50:50.079Z,37.50
2018-03-25T23:53:18.500Z,37.56
2018-03-25T23:55:46.973Z,37.49
2018-03-25T23:58:15.736Z,37.62
